Banbury, United Kingdom
Current Conditions -  °F | °C
As of 9:20 PM on Friday 24 Oct 2014 (Local Time) from EGTK Reporting Station
Clear Clear  
Wind Chill:   Ceiling: Unl
Heat Index:   Visibility: 6mi
Dew Point:   Wind: 5mph
Humidity: 100%   Direction: 250°WSW
Pressure: 29.94"   Gusts: NA
Location:  52.06°N, 1.34°W
Report Text: EGTK 242020Z 25004KT CAVOK 09/09 Q1014
Loading
Personal Weather Stations






























Interactive Weather Map
Tropical Storm Tracking
New forecast layout! Learn more

10-Day Weather Forecast

Advertisements
Track Severe Weather on mobile